Station History

Weather Underground - logo

Station Historical Data
Daily Summary for August 30, 2017 Units:  English    Metric   Both
« Previous Day
Next Day »
Daily Weekly Monthly Yearly Custom
  High: Low: Average:
Temperature: 101.9 °F 73.6 °F 86.5 °F
Dew Point: 70.5 °F 57.7 °F 66.2 °F
Humidity: 81 % 24 % 54 %
Wind Speed: 4.6 mph 0.0 mph 1.2 mph
Wind Gust: 4.6 mph - -
Wind:- - South
Pressure: 29.81 in 29.67 in -
Precipitation: 0.00 in    
Historical Graphs
 
 
Tabular Data for August 30, 2017
Time Temperature Dew Point Pressure Wind Wind Speed Wind Gust Humidity Rainfall Rate (Hourly)
00:01 84.2 °F 67.3 °F 29.70 in Calm     57 % 0.00 in
00:06 84.4 °F 68.0 °F 29.71 in Calm     58 % 0.00 in
00:11 84.0 °F 68.6 °F 29.71 in North 1.0 mph 1.0 mph 60 % 0.00 in
00:16 83.0 °F 68.6 °F 29.71 in Calm     62 % 0.00 in
00:22 82.2 °F 67.9 °F 29.71 in Calm     62 % 0.00 in
00:27 82.0 °F 68.2 °F 29.71 in Calm     63 % 0.00 in
00:32 81.8 °F 68.4 °F 29.71 in Calm     64 % 0.00 in
00:37 81.4 °F 68.5 °F 29.71 in Calm     65 % 0.00 in
00:42 81.0 °F 68.1 °F 29.71 in Calm     65 % 0.00 in
00:47 80.8 °F 68.8 °F 29.71 in Calm     67 % 0.00 in
00:52 80.7 °F 69.2 °F 29.71 in Calm     68 % 0.00 in
00:57 80.6 °F 69.1 °F 29.71 in Calm     68 % 0.00 in
01:02 80.6 °F 68.6 °F 29.71 in Calm     67 % 0.00 in
01:07 80.6 °F 68.2 °F 29.71 in Calm     66 % 0.00 in
01:12 80.5 °F 69.0 °F 29.71 in Calm     68 % 0.00 in
01:17 80.4 °F 68.4 °F 29.71 in Calm     67 % 0.00 in
01:22 80.1 °F 68.2 °F 29.71 in Calm     67 % 0.00 in
01:27 80.0 °F 68.1 °F 29.71 in Calm     67 % 0.00 in
01:32 79.8 °F 68.3 °F 29.71 in Calm     68 % 0.00 in
01:37 79.6 °F 68.1 °F 29.71 in Calm     68 % 0.00 in
01:47 79.2 °F 68.6 °F 29.71 in Calm     70 % 0.00 in
01:57 78.8 °F 68.6 °F 29.71 in Calm     71 % 0.00 in
02:02 78.6 °F 68.8 °F 29.71 in Calm     72 % 0.00 in
02:07 78.5 °F 68.3 °F 29.71 in Calm     71 % 0.00 in
02:12 78.6 °F 68.4 °F 29.71 in Calm     71 % 0.00 in
02:17 78.6 °F 68.8 °F 29.71 in Calm     72 % 0.00 in
02:22 78.5 °F 68.7 °F 29.71 in Calm     72 % 0.00 in
02:27 78.4 °F 68.2 °F 29.71 in Calm     71 % 0.00 in
02:32 78.3 °F 68.1 °F 29.71 in Calm     71 % 0.00 in
02:37 78.1 °F 68.7 °F 29.71 in Calm     73 % 0.00 in
02:42 78.0 °F 69.0 °F 29.71 in Calm     74 % 0.00 in
02:47 77.8 °F 68.4 °F 29.72 in Calm     73 % 0.00 in
02:52 77.6 °F 68.7 °F 29.72 in ESE 1.2 mph   74 % 0.00 in
02:57 77.5 °F 68.6 °F 29.72 in Calm     74 % 0.00 in
03:02 77.4 °F 68.5 °F 29.72 in Calm     74 % 0.00 in
03:07 77.3 °F 68.8 °F 29.72 in Calm     75 % 0.00 in
03:12 77.1 °F 68.6 °F 29.72 in Calm     75 % 0.00 in
03:17 76.9 °F 68.8 °F 29.72 in SE 1.2 mph   76 % 0.00 in
03:22 76.8 °F 68.3 °F 29.73 in Calm     75 % 0.00 in
03:27 76.7 °F 68.6 °F 29.72 in Calm     76 % 0.00 in
03:32 76.7 °F 68.2 °F 29.72 in Calm     75 % 0.00 in
03:37 76.7 °F 68.2 °F 29.72 in Calm     75 % 0.00 in
03:42 76.6 °F 68.1 °F 29.72 in Calm     75 % 0.00 in
03:47 76.5 °F 68.0 °F 29.72 in Calm     75 % 0.00 in
03:52 76.4 °F 67.9 °F 29.72 in Calm     75 % 0.00 in
03:57 76.3 °F 68.2 °F 29.73 in Calm     76 % 0.00 in
04:02 76.1 °F 68.0 °F 29.73 in SE 1.2 mph   76 % 0.00 in
04:07 75.9 °F 67.8 °F 29.73 in SE 1.2 mph   76 % 0.00 in
04:13 75.9 °F 67.8 °F 29.73 in ESE 1.2 mph   76 % 0.00 in
04:18 75.9 °F 67.4 °F 29.73 in SE 1.2 mph   75 % 0.00 in
04:23 75.7 °F 67.6 °F 29.73 in Calm     76 % 0.00 in
04:28 75.6 °F 67.1 °F 29.73 in SE 2.3 mph 2.3 mph 75 % 0.00 in
04:38 75.6 °F 67.1 °F 29.74 in ENE 2.3 mph 2.3 mph 75 % 0.00 in
04:43 75.8 °F 66.9 °F 29.74 in Calm     74 % 0.00 in
04:48 76.0 °F 67.1 °F 29.74 in Calm     74 % 0.00 in
04:53 76.0 °F 67.5 °F 29.74 in Calm     75 % 0.00 in
04:58 75.9 °F 67.8 °F 29.74 in Calm     76 % 0.00 in
05:03 75.8 °F 67.3 °F 29.74 in Calm     75 % 0.00 in
05:08 76.0 °F 67.5 °F 29.74 in Calm     75 % 0.00 in
05:13 75.9 °F 67.4 °F 29.74 in Calm     75 % 0.00 in
05:18 75.5 °F 67.4 °F 29.74 in Calm     76 % 0.00 in
05:23 75.2 °F 67.9 °F 29.74 in ENE 1.0 mph   78 % 0.00 in
05:33 74.8 °F 67.8 °F 29.74 in ENE 1.2 mph   79 % 0.00 in
05:38 74.5 °F 67.6 °F 29.75 in Calm     79 % 0.00 in
05:43 74.4 °F 67.8 °F 29.75 in Calm     80 % 0.00 in
05:48 74.3 °F 68.1 °F 29.75 in Calm     81 % 0.00 in
05:53 74.0 °F 67.8 °F 29.75 in ENE 1.2 mph 1.2 mph 81 % 0.00 in
05:58 74.0 °F 67.8 °F 29.75 in Calm     81 % 0.00 in
06:03 74.0 °F 67.4 °F 29.76 in ENE 1.2 mph 1.2 mph 80 % 0.00 in
06:08 74.0 °F 67.1 °F 29.76 in ENE 1.2 mph 1.2 mph 79 % 0.00 in
06:13 74.0 °F 67.1 °F 29.76 in ENE 1.2 mph   79 % 0.00 in
06:18 73.8 °F 66.5 °F 29.76 in ENE 1.2 mph 1.2 mph 78 % 0.00 in
06:23 73.7 °F 66.4 °F 29.77 in ENE 1.2 mph 1.2 mph 78 % 0.00 in
06:28 73.7 °F 66.0 °F 29.77 in ENE 2.3 mph 2.3 mph 77 % 0.00 in
06:33 73.7 °F 65.7 °F 29.77 in ENE 2.3 mph 2.3 mph 76 % 0.00 in
06:38 73.7 °F 66.0 °F 29.77 in ENE 2.3 mph 2.3 mph 77 % 0.00 in
06:43 73.6 °F 65.9 °F 29.78 in ENE 1.2 mph 1.2 mph 77 % 0.00 in
06:44 73.6 °F 65.9 °F 29.78 in ENE 2.0 mph 2.0 mph 77 % 0.00 in
06:49 73.6 °F 65.6 °F 29.78 in ENE 1.2 mph 1.2 mph 76 % 0.00 in
06:54 74.0 °F 65.6 °F 29.78 in ENE 3.5 mph 3.5 mph 75 % 0.00 in
06:59 74.2 °F 66.1 °F 29.79 in ENE 1.2 mph 1.2 mph 76 % 0.00 in
07:04 74.5 °F 65.3 °F 29.79 in ENE 2.3 mph 2.3 mph 73 % 0.00 in
07:09 75.0 °F 65.4 °F 29.79 in East 1.2 mph   72 % 0.00 in
07:14 75.3 °F 65.2 °F 29.79 in East 2.3 mph   71 % 0.00 in
07:19 75.5 °F 65.4 °F 29.79 in East 1.2 mph 1.2 mph 71 % 0.00 in
07:24 75.7 °F 65.2 °F 29.79 in East 2.3 mph 2.3 mph 70 % 0.00 in
07:29 75.7 °F 66.0 °F 29.78 in Calm     72 % 0.00 in
07:34 75.8 °F 66.9 °F 29.79 in Calm     74 % 0.00 in
07:44 75.7 °F 66.8 °F 29.77 in NW 1.2 mph 1.2 mph 74 % 0.00 in
07:49 75.7 °F 66.4 °F 29.76 in NW 2.3 mph 2.3 mph 73 % 0.00 in
07:54 75.8 °F 65.7 °F 29.76 in NW 2.3 mph 2.3 mph 71 % 0.00 in
07:59 76.2 °F 65.7 °F 29.76 in WNW 2.3 mph 2.3 mph 70 % 0.00 in
08:04 76.4 °F 66.3 °F 29.76 in West 2.3 mph 2.3 mph 71 % 0.00 in
08:09 76.4 °F 66.3 °F 29.77 in NNW 1.0 mph 1.0 mph 71 % 0.00 in
08:14 76.9 °F 66.4 °F 29.79 in ENE 2.3 mph 2.3 mph 70 % 0.00 in
08:19 77.7 °F 67.1 °F 29.81 in East 2.3 mph 2.3 mph 70 % 0.00 in
08:24 78.9 °F 67.9 °F 29.80 in East 3.0 mph 3.0 mph 69 % 0.00 in
08:29 79.5 °F 66.7 °F 29.80 in East 2.3 mph 2.3 mph 65 % 0.00 in
08:34 79.8 °F 67.0 °F 29.79 in Calm   0.1 mph 65 % 0.00 in
08:39 80.5 °F 68.1 °F 29.79 in West 1.2 mph   66 % 0.00 in
08:45 81.3 °F 67.0 °F 29.79 in WSW 1.0 mph 1.0 mph 62 % 0.00 in
08:50 81.7 °F 67.9 °F 29.79 in Calm     63 % 0.00 in
08:55 82.8 °F 68.0 °F 29.79 in NW 1.2 mph 1.2 mph 61 % 0.00 in
09:00 83.6 °F 67.8 °F 29.79 in Calm     59 % 0.00 in
09:05 84.1 °F 66.2 °F 29.78 in Calm     55 % 0.00 in
09:10 84.2 °F 65.2 °F 29.79 in NW 1.2 mph 1.2 mph 53 % 0.00 in
09:15 84.8 °F 65.2 °F 29.79 in ENE 1.2 mph 1.2 mph 52 % 0.00 in
09:20 85.3 °F 66.2 °F 29.79 in ESE 1.2 mph 1.2 mph 53 % 0.00 in
09:25 86.3 °F 66.0 °F 29.79 in SE 1.2 mph 1.2 mph 51 % 0.00 in
09:26 86.4 °F 66.1 °F 29.79 in SE 1.2 mph   51 % 0.00 in
09:31 87.3 °F 65.8 °F 29.80 in SSE 1.2 mph 1.2 mph 49 % 0.00 in
09:36 87.9 °F 65.8 °F 29.80 in SE 2.3 mph 2.3 mph 48 % 0.00 in
09:41 88.4 °F 66.2 °F 29.80 in East 3.5 mph 3.5 mph 48 % 0.00 in
09:46 88.8 °F 66.0 °F 29.80 in South 3.5 mph 3.5 mph 47 % 0.00 in
09:51 88.9 °F 66.1 °F 29.80 in South 3.5 mph 3.5 mph 47 % 0.00 in
09:56 89.4 °F 65.3 °F 29.80 in SSW 3.5 mph 3.5 mph 45 % 0.00 in
10:01 89.5 °F 66.0 °F 29.80 in SSE 3.5 mph 3.5 mph 46 % 0.00 in
10:06 89.5 °F 66.6 °F 29.81 in SSE 4.6 mph 4.6 mph 47 % 0.00 in
10:11 89.3 °F 65.8 °F 29.80 in NE 2.3 mph 2.3 mph 46 % 0.00 in
10:16 88.9 °F 64.8 °F 29.80 in SE 3.5 mph 3.5 mph 45 % 0.00 in
10:21 89.0 °F 64.9 °F 29.80 in SE 4.6 mph 4.6 mph 45 % 0.00 in
10:26 89.0 °F 65.5 °F 29.81 in SSE 4.0 mph 4.0 mph 46 % 0.00 in
10:31 88.5 °F 65.1 °F 29.80 in SE 3.5 mph 3.5 mph 46 % 0.00 in
10:36 88.6 °F 65.2 °F 29.80 in ESE 4.6 mph 4.6 mph 46 % 0.00 in
10:41 89.2 °F 66.3 °F 29.81 in SSE 3.5 mph 3.5 mph 47 % 0.00 in
10:46 89.5 °F 66.0 °F 29.81 in SSE 3.5 mph 3.5 mph 46 % 0.00 in
10:51 90.1 °F 66.5 °F 29.81 in East 4.0 mph 4.0 mph 46 % 0.00 in
10:56 90.5 °F 66.3 °F 29.81 in NW 3.5 mph 3.5 mph 45 % 0.00 in
11:01 91.3 °F 66.3 °F 29.81 in NNW 1.2 mph 1.2 mph 44 % 0.00 in
11:06 91.7 °F 66.0 °F 29.81 in WSW 3.5 mph 3.5 mph 43 % 0.00 in
11:11 92.2 °F 66.5 °F 29.81 in SW 2.3 mph 2.3 mph 43 % 0.00 in
11:16 92.0 °F 64.9 °F 29.80 in North 3.5 mph 3.5 mph 41 % 0.00 in
11:21 92.3 °F 65.9 °F 29.80 in West 3.5 mph 3.5 mph 42 % 0.00 in
11:27 91.6 °F 65.3 °F 29.80 in East 1.2 mph 1.2 mph 42 % 0.00 in
11:32 91.5 °F 65.8 °F 29.79 in SE 1.2 mph 1.2 mph 43 % 0.00 in
11:37 91.7 °F 64.7 °F 29.79 in SSW 3.5 mph 3.5 mph 41 % 0.00 in
11:42 92.1 °F 66.4 °F 29.79 in SSE 2.3 mph 2.3 mph 43 % 0.00 in
11:47 92.4 °F 66.0 °F 29.79 in South 3.5 mph 3.5 mph 42 % 0.00 in
11:52 92.8 °F 65.6 °F 29.78 in SE 1.2 mph 1.2 mph 41 % 0.00 in
11:57 93.4 °F 68.2 °F 29.78 in South 3.5 mph 3.5 mph 44 % 0.00 in
12:02 93.5 °F 65.6 °F 29.77 in ESE 1.2 mph 1.2 mph 40 % 0.00 in
12:07 93.4 °F 65.5 °F 29.77 in ESE 1.2 mph 1.2 mph 40 % 0.00 in
12:12 93.1 °F 65.2 °F 29.76 in SSW 3.5 mph 3.5 mph 40 % 0.00 in
12:17 93.8 °F 65.8 °F 29.76 in ESE 3.5 mph 3.5 mph 40 % 0.00 in
12:22 94.6 °F 64.3 °F 29.76 in South 3.5 mph 3.5 mph 37 % 0.00 in
12:27 95.3 °F 64.9 °F 29.76 in SSE 3.5 mph 3.5 mph 37 % 0.00 in
12:32 95.7 °F 65.3 °F 29.76 in South 3.5 mph 3.5 mph 37 % 0.00 in
12:37 96.4 °F 63.5 °F 29.76 in East 3.5 mph 3.5 mph 34 % 0.00 in
12:42 96.7 °F 63.7 °F 29.76 in NNW 2.3 mph 2.3 mph 34 % 0.00 in
12:47 96.6 °F 64.5 °F 29.76 in SE 2.3 mph 2.3 mph 35 % 0.00 in
12:52 96.6 °F 64.5 °F 29.75 in SSE 3.5 mph 3.5 mph 35 % 0.00 in
12:57 96.4 °F 63.5 °F 29.76 in SSE 3.5 mph 3.5 mph 34 % 0.00 in
13:02 96.0 °F 64.7 °F 29.75 in North 3.5 mph 3.5 mph 36 % 0.00 in
13:07 95.4 °F 64.2 °F 29.75 in NE 4.0 mph 4.0 mph 36 % 0.00 in
13:12 95.3 °F 64.9 °F 29.75 in NNE 2.3 mph 2.3 mph 37 % 0.00 in
13:17 95.3 °F 65.7 °F 29.75 in SSE 3.5 mph 3.5 mph 38 % 0.00 in
13:22 95.2 °F 64.8 °F 29.75 in ENE 3.5 mph 3.5 mph 37 % 0.00 in
13:27 95.2 °F 63.2 °F 29.75 in SSW 3.5 mph 3.5 mph 35 % 0.00 in
13:32 95.0 °F 63.1 °F 29.75 in NNW 1.2 mph 1.2 mph 35 % 0.00 in
13:37 94.5 °F 62.6 °F 29.74 in WNW 3.5 mph 3.5 mph 35 % 0.00 in
13:42 94.6 °F 64.3 °F 29.74 in WNW 1.2 mph 1.2 mph 37 % 0.00 in
13:47 95.4 °F 64.2 °F 29.74 in NW 2.3 mph 2.3 mph 36 % 0.00 in
13:52 96.0 °F 63.9 °F 29.74 in NW 2.3 mph 2.3 mph 35 % 0.00 in
13:57 96.5 °F 65.2 °F 29.74 in NNE 1.2 mph 1.2 mph 36 % 0.00 in
14:07 97.2 °F 65.8 °F 29.73 in West 2.3 mph 2.3 mph 36 % 0.00 in
14:12 97.3 °F 64.2 °F 29.73 in NNE 2.3 mph 2.3 mph 34 % 0.00 in
14:17 97.8 °F 63.8 °F 29.73 in SE 3.5 mph 3.5 mph 33 % 0.00 in
14:22 98.4 °F 63.5 °F 29.73 in NNW 3.0 mph 3.0 mph 32 % 0.00 in
14:27 98.2 °F 63.3 °F 29.73 in East 2.3 mph 2.3 mph 32 % 0.00 in
14:32 98.2 °F 62.4 °F 29.72 in WSW 2.3 mph 2.3 mph 31 % 0.00 in
14:37 98.6 °F 61.8 °F 29.72 in WSW 2.0 mph 2.0 mph 30 % 0.00 in
14:42 98.4 °F 61.6 °F 29.72 in NW 2.3 mph 2.3 mph 30 % 0.00 in
14:47 98.3 °F 61.5 °F 29.71 in NW 3.5 mph 3.5 mph 30 % 0.00 in
14:52 98.6 °F 62.7 °F 29.71 in NNW 2.0 mph 2.0 mph 31 % 0.00 in
14:57 99.2 °F 64.2 °F 29.71 in East 1.2 mph 1.2 mph 32 % 0.00 in
15:02 99.7 °F 61.8 °F 29.71 in WNW 1.0 mph 1.0 mph 29 % 0.00 in
15:07 99.5 °F 61.6 °F 29.70 in West 2.3 mph 2.3 mph 29 % 0.00 in
15:12 99.7 °F 62.7 °F 29.70 in WSW 2.0 mph 2.0 mph 30 % 0.00 in
15:17 99.4 °F 60.5 °F 29.70 in NW 1.2 mph 1.2 mph 28 % 0.00 in
15:22 99.6 °F 60.7 °F 29.70 in WNW 1.2 mph 1.2 mph 28 % 0.00 in
15:27 100.1 °F 60.1 °F 29.70 in North 1.2 mph 1.2 mph 27 % 0.00 in
15:32 100.5 °F 60.4 °F 29.70 in NW 2.3 mph 2.3 mph 27 % 0.00 in
15:37 100.6 °F 60.5 °F 29.69 in NW 2.0 mph 2.0 mph 27 % 0.00 in
15:42 100.7 °F 61.6 °F 29.70 in SSE 1.2 mph 1.2 mph 28 % 0.00 in
15:47 101.2 °F 61.0 °F 29.69 in SSE 2.3 mph 2.3 mph 27 % 0.00 in
15:52 101.4 °F 62.2 °F 29.69 in SE 1.2 mph 1.2 mph 28 % 0.00 in
15:57 101.5 °F 60.2 °F 29.69 in NW 1.2 mph 1.2 mph 26 % 0.00 in
16:02 101.5 °F 62.3 °F 29.69 in West 1.2 mph 1.2 mph 28 % 0.00 in
16:07 101.5 °F 61.3 °F 29.69 in Calm     27 % 0.00 in
16:12 101.2 °F 57.7 °F 29.69 in NW 1.2 mph 1.2 mph 24 % 0.00 in
16:17 101.0 °F 60.9 °F 29.69 in WNW 1.2 mph 1.2 mph 27 % 0.00 in
16:22 101.0 °F 59.8 °F 29.69 in NW 1.0 mph 1.0 mph 26 % 0.00 in
16:27 101.0 °F 61.9 °F 29.68 in Calm   0.1 mph 28 % 0.00 in
16:33 101.1 °F 63.9 °F 29.68 in Calm     30 % 0.00 in
16:38 101.3 °F 62.2 °F 29.68 in East 2.3 mph 2.3 mph 28 % 0.00 in
16:43 101.0 °F 62.9 °F 29.68 in NNE 2.3 mph 2.3 mph 29 % 0.00 in
16:48 100.7 °F 61.6 °F 29.68 in Calm     28 % 0.00 in
16:53 101.0 °F 59.8 °F 29.68 in East 1.2 mph 1.2 mph 26 % 0.00 in
16:58 101.3 °F 60.1 °F 29.68 in Calm     26 % 0.00 in
17:03 101.9 °F 60.6 °F 29.68 in NW 1.2 mph 1.2 mph 26 % 0.00 in
17:08 101.8 °F 61.5 °F 29.68 in WNW 1.2 mph 1.2 mph 27 % 0.00 in
17:13 101.9 °F 61.6 °F 29.67 in SSE 1.2 mph 1.2 mph 27 % 0.00 in
17:18 101.5 °F 61.3 °F 29.67 in Calm     27 % 0.00 in
17:23 101.5 °F 61.3 °F 29.67 in Calm     27 % 0.00 in
17:28 101.2 °F 64.0 °F 29.67 in Calm     30 % 0.00 in
17:33 100.8 °F 62.7 °F 29.67 in SE 1.2 mph   29 % 0.00 in
17:38 100.8 °F 61.7 °F 29.67 in WNW 1.2 mph 1.2 mph 28 % 0.00 in
17:43 101.1 °F 62.0 °F 29.67 in NW 2.0 mph 2.0 mph 28 % 0.00 in
17:48 100.8 °F 61.7 °F 29.67 in WNW 2.3 mph 2.3 mph 28 % 0.00 in
17:53 100.5 °F 63.4 °F 29.67 in NNW 2.3 mph 2.3 mph 30 % 0.00 in
17:58 100.0 °F 64.9 °F 29.67 in NW 1.2 mph 1.2 mph 32 % 0.00 in
18:03 99.7 °F 63.7 °F 29.67 in NW 1.2 mph 1.2 mph 31 % 0.00 in
18:08 99.2 °F 63.3 °F 29.67 in NW 1.2 mph 1.2 mph 31 % 0.00 in
18:13 98.9 °F 64.8 °F 29.67 in NNW 2.3 mph 2.3 mph 33 % 0.00 in
18:18 98.2 °F 64.2 °F 29.67 in WNW 2.3 mph 2.3 mph 33 % 0.00 in
18:23 97.8 °F 65.5 °F 29.67 in Calm     35 % 0.00 in
18:25 97.6 °F 65.3 °F 29.67 in WNW 1.2 mph 1.2 mph 35 % 0.00 in
18:30 97.1 °F 65.7 °F 29.67 in WNW 1.2 mph 1.2 mph 36 % 0.00 in
18:35 96.6 °F 66.8 °F 29.67 in Calm     38 % 0.00 in
18:40 96.1 °F 65.6 °F 29.67 in WNW 1.2 mph 1.2 mph 37 % 0.00 in
18:45 95.7 °F 66.0 °F 29.67 in WNW 1.2 mph 1.2 mph 38 % 0.00 in
18:50 95.3 °F 66.4 °F 29.67 in Calm     39 % 0.00 in
18:55 94.8 °F 66.0 °F 29.67 in Calm     39 % 0.00 in
19:00 94.4 °F 65.6 °F 29.67 in Calm     39 % 0.00 in
19:01 94.4 °F 66.4 °F 29.67 in Calm     40 % 0.00 in
19:06 94.0 °F 66.0 °F 29.67 in Calm     40 % 0.00 in
19:11 93.5 °F 67.6 °F 29.67 in Calm     43 % 0.00 in
19:16 92.8 °F 68.3 °F 29.67 in Calm     45 % 0.00 in
19:21 92.1 °F 67.7 °F 29.67 in Calm     45 % 0.00 in
19:26 91.5 °F 67.2 °F 29.67 in Calm     45 % 0.00 in
19:31 91.0 °F 68.0 °F 29.68 in Calm     47 % 0.00 in
19:36 90.4 °F 67.4 °F 29.68 in Calm     47 % 0.00 in
19:41 89.8 °F 68.1 °F 29.68 in Calm     49 % 0.00 in
19:46 89.2 °F 68.1 °F 29.68 in Calm     50 % 0.00 in
19:51 88.7 °F 70.5 °F 29.68 in Calm     55 % 0.00 in
19:56 88.1 °F 69.9 °F 29.69 in Calm     55 % 0.00 in
20:01 87.8 °F 69.6 °F 29.69 in Calm     55 % 0.00 in
20:06 87.5 °F 67.7 °F 29.69 in Calm     52 % 0.00 in
20:11 87.4 °F 67.6 °F 29.69 in Calm     52 % 0.00 in
20:16 87.1 °F 66.8 °F 29.70 in Calm     51 % 0.00 in
20:21 87.0 °F 68.3 °F 29.70 in Calm     54 % 0.00 in
20:22 87.0 °F 68.9 °F 29.70 in Calm     55 % 0.00 in
20:27 86.6 °F 69.0 °F 29.70 in Calm     56 % 0.00 in
20:32 86.1 °F 68.0 °F 29.70 in Calm     55 % 0.00 in
20:37 85.8 °F 69.3 °F 29.70 in Calm     58 % 0.00 in
20:42 85.4 °F 69.9 °F 29.71 in Calm     60 % 0.00 in
20:47 85.0 °F 69.1 °F 29.71 in Calm     59 % 0.00 in
20:52 84.9 °F 69.0 °F 29.71 in Calm     59 % 0.00 in
20:57 84.8 °F 69.4 °F 29.71 in Calm     60 % 0.00 in
21:02 84.6 °F 69.2 °F 29.72 in Calm     60 % 0.00 in
21:07 84.5 °F 69.6 °F 29.72 in Calm     61 % 0.00 in
21:12 84.2 °F 69.3 °F 29.72 in Calm     61 % 0.00 in
21:17 84.1 °F 70.1 °F 29.72 in Calm     63 % 0.00 in
21:22 83.9 °F 70.0 °F 29.72 in Calm     63 % 0.00 in
21:27 83.7 °F 70.2 °F 29.72 in Calm     64 % 0.00 in
21:32 83.4 °F 68.5 °F 29.73 in Calm     61 % 0.00 in
21:37 83.1 °F 69.2 °F 29.73 in Calm   0.1 mph 63 % 0.00 in
21:43 82.8 °F 68.9 °F 29.73 in Calm     63 % 0.00 in
21:48 82.4 °F 69.0 °F 29.73 in Calm     64 % 0.00 in
21:53 82.2 °F 67.9 °F 29.73 in Calm     62 % 0.00 in
22:03 81.9 °F 69.0 °F 29.73 in Calm     65 % 0.00 in
22:08 81.5 °F 69.0 °F 29.73 in Calm     66 % 0.00 in
22:13 81.1 °F 68.7 °F 29.73 in Calm     66 % 0.00 in
22:18 80.9 °F 68.9 °F 29.73 in Calm     67 % 0.00 in
22:23 80.7 °F 68.3 °F 29.73 in Calm     66 % 0.00 in
22:28 80.6 °F 68.2 °F 29.74 in Calm     66 % 0.00 in
22:33 80.3 °F 68.8 °F 29.74 in Calm     68 % 0.00 in
22:38 80.1 °F 68.6 °F 29.74 in Calm     68 % 0.00 in
22:43 80.0 °F 68.5 °F 29.74 in SE 1.2 mph   68 % 0.00 in
22:48 79.6 °F 68.1 °F 29.74 in SE 2.3 mph 2.3 mph 68 % 0.00 in
22:53 79.2 °F 68.1 °F 29.74 in SE 1.2 mph 1.2 mph 69 % 0.00 in
22:58 79.1 °F 67.6 °F 29.74 in SE 1.2 mph 1.2 mph 68 % 0.00 in
23:03 79.1 °F 67.6 °F 29.74 in SE 1.2 mph 1.2 mph 68 % 0.00 in
23:08 78.9 °F 67.9 °F 29.74 in Calm     69 % 0.00 in
23:13 78.5 °F 67.5 °F 29.74 in Calm     69 % 0.00 in
23:18 78.3 °F 67.3 °F 29.75 in Calm     69 % 0.00 in
23:23 78.2 °F 67.2 °F 29.75 in Calm     69 % 0.00 in
23:28 78.0 °F 67.8 °F 29.75 in Calm     71 % 0.00 in
23:33 77.8 °F 67.6 °F 29.75 in Calm     71 % 0.00 in
23:38 77.6 °F 67.0 °F 29.74 in Calm     70 % 0.00 in
23:43 77.6 °F 67.4 °F 29.75 in Calm     71 % 0.00 in
23:48 77.5 °F 66.9 °F 29.75 in Calm     70 % 0.00 in
23:53 77.4 °F 67.3 °F 29.75 in Calm     71 % 0.00 in
23:58 77.2 °F 67.5 °F 29.75 in Calm     72 % 0.00 in
Park Place, Exeter, Tulare County, California, USA
Compliments of Weather Underground - 2.75 mb